sensor_id;sensor_type;location;lat;lon;timestamp;pressure;altitude;pressure_sealevel;temperature
75811;BMP280;64449;50.016;19.954;2023-09-19T00:00:33;98150.55;;;22.75
75811;BMP280;64449;50.016;19.954;2023-09-19T00:02:59;98153.46;;;22.73
75811;BMP280;64449;50.016;19.954;2023-09-19T00:05:25;98151.41;;;22.72
75811;BMP280;64449;50.016;19.954;2023-09-19T00:07:53;98149.95;;;22.71
75811;BMP280;64449;50.016;19.954;2023-09-19T00:10:23;98150.77;;;22.70
75811;BMP280;64449;50.016;19.954;2023-09-19T00:12:53;98147.52;;;22.69
75811;BMP280;64449;50.016;19.954;2023-09-19T00:15:24;98143.63;;;22.69
75811;BMP280;64449;50.016;19.954;2023-09-19T00:17:51;98141.47;;;22.69
75811;BMP280;64449;50.016;19.954;2023-09-19T00:20:18;98147.42;;;22.69
75811;BMP280;64449;50.016;19.954;2023-09-19T00:22:44;98148.92;;;22.67
75811;BMP280;64449;50.016;19.954;2023-09-19T00:25:10;98148.89;;;22.64
75811;BMP280;64449;50.016;19.954;2023-09-19T00:27:38;98147.55;;;22.63
75811;BMP280;64449;50.016;19.954;2023-09-19T00:30:08;98146.30;;;22.62
75811;BMP280;64449;50.016;19.954;2023-09-19T00:32:40;98142.94;;;22.62
75811;BMP280;64449;50.016;19.954;2023-09-19T00:35:06;98141.53;;;22.61
75811;BMP280;64449;50.016;19.954;2023-09-19T00:37:33;98141.88;;;22.60
75811;BMP280;64449;50.016;19.954;2023-09-19T00:39:58;98142.04;;;22.61
75811;BMP280;64449;50.016;19.954;2023-09-19T00:42:23;98145.69;;;22.60
75811;BMP280;64449;50.016;19.954;2023-09-19T00:44:51;98144.79;;;22.57
75811;BMP280;64449;50.016;19.954;2023-09-19T00:47:17;98144.91;;;22.55
75811;BMP280;64449;50.016;19.954;2023-09-19T00:49:44;98151.79;;;22.49
75811;BMP280;64449;50.016;19.954;2023-09-19T00:52:11;98154.39;;;22.45
75811;BMP280;64449;50.016;19.954;2023-09-19T00:54:37;98150.80;;;22.36
75811;BMP280;64449;50.016;19.954;2023-09-19T00:57:02;98141.82;;;22.31
75811;BMP280;64449;50.016;19.954;2023-09-19T00:59:28;98142.11;;;22.28
75811;BMP280;64449;50.016;19.954;2023-09-19T01:01:56;98146.11;;;22.25
75811;BMP280;64449;50.016;19.954;2023-09-19T01:04:22;98149.48;;;22.21
75811;BMP280;64449;50.016;19.954;2023-09-19T01:06:48;98148.92;;;22.18
75811;BMP280;64449;50.016;19.954;2023-09-19T01:09:19;98150.41;;;22.19
75811;BMP280;64449;50.016;19.954;2023-09-19T01:11:47;98146.84;;;22.20
75811;BMP280;64449;50.016;19.954;2023-09-19T01:14:34;98147.05;;;22.19
75811;BMP280;64449;50.016;19.954;2023-09-19T01:17:27;98134.09;;;22.16
75811;BMP280;64449;50.016;19.954;2023-09-19T01:25:33;98125.89;;;22.09
75811;BMP280;64449;50.016;19.954;2023-09-19T01:31:13;98117.73;;;22.07
75811;BMP280;64449;50.016;19.954;2023-09-19T01:33:56;98107.10;;;22.05
75811;BMP280;64449;50.016;19.954;2023-09-19T01:36:23;98106.80;;;22.03
75811;BMP280;64449;50.016;19.954;2023-09-19T01:38:50;98105.05;;;22.01
75811;BMP280;64449;50.016;19.954;2023-09-19T01:41:22;98102.65;;;21.99
75811;BMP280;64449;50.016;19.954;2023-09-19T01:43:51;98105.19;;;21.99
75811;BMP280;64449;50.016;19.954;2023-09-19T01:46:21;98109.32;;;21.97
75811;BMP280;64449;50.016;19.954;2023-09-19T01:52:10;98102.70;;;21.96
75811;BMP280;64449;50.016;19.954;2023-09-19T01:54:52;98100.10;;;21.93
75811;BMP280;64449;50.016;19.954;2023-09-19T01:59:53;98096.41;;;21.88
75811;BMP280;64449;50.016;19.954;2023-09-19T02:02:21;98099.86;;;21.87
75811;BMP280;64449;50.016;19.954;2023-09-19T02:04:48;98097.35;;;21.87
75811;BMP280;64449;50.016;19.954;2023-09-19T02:07:14;98098.45;;;21.85
75811;BMP280;64449;50.016;19.954;2023-09-19T02:09:40;98096.52;;;21.83
75811;BMP280;64449;50.016;19.954;2023-09-19T02:12:09;98096.17;;;21.81
75811;BMP280;64449;50.016;19.954;2023-09-19T02:14:34;98092.85;;;21.77
75811;BMP280;64449;50.016;19.954;2023-09-19T02:17:02;98087.16;;;21.71
75811;BMP280;64449;50.016;19.954;2023-09-19T02:19:30;98082.45;;;21.69
75811;BMP280;64449;50.016;19.954;2023-09-19T02:21:57;98083.34;;;21.70
75811;BMP280;64449;50.016;19.954;2023-09-19T02:24:22;98083.80;;;21.68
75811;BMP280;64449;50.016;19.954;2023-09-19T02:26:49;98084.98;;;21.68
75811;BMP280;64449;50.016;19.954;2023-09-19T02:29:14;98090.01;;;21.67
75811;BMP280;64449;50.016;19.954;2023-09-19T02:31:40;98089.52;;;21.65
75811;BMP280;64449;50.016;19.954;2023-09-19T02:34:05;98087.98;;;21.64
75811;BMP280;64449;50.016;19.954;2023-09-19T02:36:32;98087.52;;;21.64
75811;BMP280;64449;50.016;19.954;2023-09-19T02:38:57;98085.44;;;21.64
75811;BMP280;64449;50.016;19.954;2023-09-19T02:41:22;98080.83;;;21.63
75811;BMP280;64449;50.016;19.954;2023-09-19T02:43:48;98081.57;;;21.59
75811;BMP280;64449;50.016;19.954;2023-09-19T02:46:13;98073.42;;;21.59
75811;BMP280;64449;50.016;19.954;2023-09-19T02:48:39;98067.73;;;21.60
75811;BMP280;64449;50.016;19.954;2023-09-19T02:51:04;98067.40;;;21.60
75811;BMP280;64449;50.016;19.954;2023-09-19T02:53:30;98062.41;;;21.60
75811;BMP280;64449;50.016;19.954;2023-09-19T02:55:57;98058.75;;;21.61
75811;BMP280;64449;50.016;19.954;2023-09-19T02:58:22;98055.77;;;21.60
75811;BMP280;64449;50.016;19.954;2023-09-19T03:00:48;98055.73;;;21.60
75811;BMP280;64449;50.016;19.954;2023-09-19T03:03:16;98053.42;;;21.60
75811;BMP280;64449;50.016;19.954;2023-09-19T03:05:41;98049.58;;;21.60
75811;BMP280;64449;50.016;19.954;2023-09-19T03:08:15;98046.05;;;21.60
75811;BMP280;64449;50.016;19.954;2023-09-19T03:10:40;98046.15;;;21.60
75811;BMP280;64449;50.016;19.954;2023-09-19T03:13:06;98040.11;;;21.60
75811;BMP280;64449;50.016;19.954;2023-09-19T03:15:35;98034.19;;;21.59
75811;BMP280;64449;50.016;19.954;2023-09-19T03:18:04;98030.89;;;21.57
75811;BMP280;64449;50.016;19.954;2023-09-19T03:20:29;98030.12;;;21.54
75811;BMP280;64449;50.016;19.954;2023-09-19T03:22:55;98031.08;;;21.53
75811;BMP280;64449;50.016;19.954;2023-09-19T03:25:20;98030.16;;;21.51
75811;BMP280;64449;50.016;19.954;2023-09-19T03:27:48;98023.20;;;21.50
75811;BMP280;64449;50.016;19.954;2023-09-19T03:30:13;98020.30;;;21.50
75811;BMP280;64449;50.016;19.954;2023-09-19T03:32:46;98014.06;;;21.49
75811;BMP280;64449;50.016;19.954;2023-09-19T03:35:12;98013.73;;;21.49
75811;BMP280;64449;50.016;19.954;2023-09-19T03:37:40;98007.80;;;21.49
75811;BMP280;64449;50.016;19.954;2023-09-19T03:40:05;98005.73;;;21.48
75811;BMP280;64449;50.016;19.954;2023-09-19T03:42:32;98003.77;;;21.46
75811;BMP280;64449;50.016;19.954;2023-09-19T03:44:57;98008.03;;;21.44
75811;BMP280;64449;50.016;19.954;2023-09-19T03:47:24;98004.64;;;21.43
75811;BMP280;64449;50.016;19.954;2023-09-19T03:49:49;98001.95;;;21.41
75811;BMP280;64449;50.016;19.954;2023-09-19T03:52:14;98004.04;;;21.40
75811;BMP280;64449;50.016;19.954;2023-09-19T03:54:42;98006.05;;;21.41
75811;BMP280;64449;50.016;19.954;2023-09-19T03:57:08;98002.70;;;21.41
75811;BMP280;64449;50.016;19.954;2023-09-19T03:59:34;98002.20;;;21.40
75811;BMP280;64449;50.016;19.954;2023-09-19T04:02:00;98001.51;;;21.38
75811;BMP280;64449;50.016;19.954;2023-09-19T04:04:27;98000.54;;;21.39
75811;BMP280;64449;50.016;19.954;2023-09-19T04:06:54;98000.29;;;21.39
75811;BMP280;64449;50.016;19.954;2023-09-19T04:09:19;97996.77;;;21.38
75811;BMP280;64449;50.016;19.954;2023-09-19T04:11:45;97992.77;;;21.38
75811;BMP280;64449;50.016;19.954;2023-09-19T04:14:10;97988.88;;;21.38
75811;BMP280;64449;50.016;19.954;2023-09-19T04:16:36;97991.48;;;21.37
75811;BMP280;64449;50.016;19.954;2023-09-19T04:19:01;97990.62;;;21.37
75811;BMP280;64449;50.016;19.954;2023-09-19T04:21:28;97992.41;;;21.37
75811;BMP280;64449;50.016;19.954;2023-09-19T04:23:54;97991.91;;;21.37
75811;BMP280;64449;50.016;19.954;2023-09-19T04:26:19;97993.09;;;21.37
75811;BMP280;64449;50.016;19.954;2023-09-19T04:28:45;97993.73;;;21.36
75811;BMP280;64449;50.016;19.954;2023-09-19T04:31:11;97990.38;;;21.35
75811;BMP280;64449;50.016;19.954;2023-09-19T04:33:37;97988.30;;;21.34
75811;BMP280;64449;50.016;19.954;2023-09-19T04:36:02;97989.08;;;21.33
75811;BMP280;64449;50.016;19.954;2023-09-19T04:38:30;97990.65;;;21.31
75811;BMP280;64449;50.016;19.954;2023-09-19T04:40:58;97990.92;;;21.29
75811;BMP280;64449;50.016;19.954;2023-09-19T04:43:24;97992.64;;;21.27
75811;BMP280;64449;50.016;19.954;2023-09-19T04:45:49;97988.59;;;21.26
75811;BMP280;64449;50.016;19.954;2023-09-19T04:48:16;97990.98;;;21.26
75811;BMP280;64449;50.016;19.954;2023-09-19T04:50:41;97991.38;;;21.25
75811;BMP280;64449;50.016;19.954;2023-09-19T04:53:06;97994.91;;;21.26
75811;BMP280;64449;50.016;19.954;2023-09-19T04:55:32;97996.36;;;21.28
75811;BMP280;64449;50.016;19.954;2023-09-19T04:57:58;97998.84;;;21.31
75811;BMP280;64449;50.016;19.954;2023-09-19T05:00:23;98004.02;;;21.33
75811;BMP280;64449;50.016;19.954;2023-09-19T05:02:54;98006.11;;;21.33
75811;BMP280;64449;50.016;19.954;2023-09-19T05:05:21;98009.65;;;21.33
75811;BMP280;64449;50.016;19.954;2023-09-19T05:07:48;98012.45;;;21.33
75811;BMP280;64449;50.016;19.954;2023-09-19T05:10:14;98014.21;;;21.34
75811;BMP280;64449;50.016;19.954;2023-09-19T05:12:40;98021.70;;;21.34
75811;BMP280;64449;50.016;19.954;2023-09-19T05:15:06;98021.19;;;21.32
75811;BMP280;64449;50.016;19.954;2023-09-19T05:17:33;98020.81;;;21.29
75811;BMP280;64449;50.016;19.954;2023-09-19T05:19:59;98021.21;;;21.27
75811;BMP280;64449;50.016;19.954;2023-09-19T05:22:36;98024.29;;;21.25
75811;BMP280;64449;50.016;19.954;2023-09-19T05:25:05;98029.74;;;21.23
75811;BMP280;64449;50.016;19.954;2023-09-19T05:27:31;98028.02;;;21.22
75811;BMP280;64449;50.016;19.954;2023-09-19T05:29:56;98025.05;;;21.22
75811;BMP280;64449;50.016;19.954;2023-09-19T05:32:21;98025.97;;;21.20
75811;BMP280;64449;50.016;19.954;2023-09-19T05:34:47;98026.29;;;21.20
75811;BMP280;64449;50.016;19.954;2023-09-19T05:37:13;98027.45;;;21.20
75811;BMP280;64449;50.016;19.954;2023-09-19T05:39:41;98032.38;;;21.20
75811;BMP280;64449;50.016;19.954;2023-09-19T05:42:06;98036.02;;;21.20
75811;BMP280;64449;50.016;19.954;2023-09-19T05:44:33;98042.79;;;21.20
75811;BMP280;64449;50.016;19.954;2023-09-19T05:46:58;98052.91;;;21.18
75811;BMP280;64449;50.016;19.954;2023-09-19T05:49:24;98050.75;;;21.16
75811;BMP280;64449;50.016;19.954;2023-09-19T05:51:50;98052.92;;;21.17
75811;BMP280;64449;50.016;19.954;2023-09-19T05:54:19;98052.31;;;21.17
75811;BMP280;64449;50.016;19.954;2023-09-19T05:56:45;98054.17;;;21.17
75811;BMP280;64449;50.016;19.954;2023-09-19T05:59:12;98058.69;;;21.18
75811;BMP280;64449;50.016;19.954;2023-09-19T06:01:39;98059.74;;;21.13
75811;BMP280;64449;50.016;19.954;2023-09-19T06:04:04;98063.27;;;21.10
75811;BMP280;64449;50.016;19.954;2023-09-19T06:06:29;98065.98;;;21.08
75811;BMP280;64449;50.016;19.954;2023-09-19T06:08:55;98069.67;;;21.07
75811;BMP280;64449;50.016;19.954;2023-09-19T06:11:20;98072.84;;;21.06
75811;BMP280;64449;50.016;19.954;2023-09-19T06:13:46;98070.35;;;21.06
75811;BMP280;64449;50.016;19.954;2023-09-19T06:16:12;98067.74;;;21.05
75811;BMP280;64449;50.016;19.954;2023-09-19T06:18:38;98069.04;;;21.03
75811;BMP280;64449;50.016;19.954;2023-09-19T06:21:03;98064.86;;;20.99
75811;BMP280;64449;50.016;19.954;2023-09-19T06:23:33;98065.02;;;20.99
75811;BMP280;64449;50.016;19.954;2023-09-19T06:25:59;98061.91;;;20.99
75811;BMP280;64449;50.016;19.954;2023-09-19T06:28:25;98062.54;;;21.01
75811;BMP280;64449;50.016;19.954;2023-09-19T06:30:53;98062.54;;;21.02
75811;BMP280;64449;50.016;19.954;2023-09-19T06:33:19;98066.48;;;21.04
75811;BMP280;64449;50.016;19.954;2023-09-19T06:35:46;98070.45;;;21.04
75811;BMP280;64449;50.016;19.954;2023-09-19T06:38:12;98071.41;;;21.02
75811;BMP280;64449;50.016;19.954;2023-09-19T06:40:38;98074.52;;;20.99
75811;BMP280;64449;50.016;19.954;2023-09-19T06:43:05;98076.08;;;20.92
75811;BMP280;64449;50.016;19.954;2023-09-19T06:45:30;98074.69;;;20.86
75811;BMP280;64449;50.016;19.954;2023-09-19T06:47:57;98078.80;;;20.81
75811;BMP280;64449;50.016;19.954;2023-09-19T06:50:23;98080.38;;;20.78
75811;BMP280;64449;50.016;19.954;2023-09-19T06:52:50;98081.11;;;20.75
75811;BMP280;64449;50.016;19.954;2023-09-19T06:55:17;98083.02;;;20.71
75811;BMP280;64449;50.016;19.954;2023-09-19T06:57:47;98085.55;;;20.69
75811;BMP280;64449;50.016;19.954;2023-09-19T07:00:13;98090.02;;;20.67
75811;BMP280;64449;50.016;19.954;2023-09-19T07:03:01;98097.67;;;20.64
75811;BMP280;64449;50.016;19.954;2023-09-19T07:05:33;98098.45;;;20.63
75811;BMP280;64449;50.016;19.954;2023-09-19T07:08:01;98097.57;;;20.61
75811;BMP280;64449;50.016;19.954;2023-09-19T07:10:27;98095.44;;;20.56
75811;BMP280;64449;50.016;19.954;2023-09-19T07:13:00;98098.20;;;20.56
75811;BMP280;64449;50.016;19.954;2023-09-19T07:15:27;98099.93;;;20.58
75811;BMP280;64449;50.016;19.954;2023-09-19T07:17:53;98101.44;;;20.55
75811;BMP280;64449;50.016;19.954;2023-09-19T07:20:20;98102.44;;;20.46
75811;BMP280;64449;50.016;19.954;2023-09-19T07:22:45;98098.42;;;20.36
75811;BMP280;64449;50.016;19.954;2023-09-19T07:25:12;98100.88;;;20.31
75811;BMP280;64449;50.016;19.954;2023-09-19T07:27:40;98102.40;;;20.27
75811;BMP280;64449;50.016;19.954;2023-09-19T07:30:06;98105.94;;;20.22
75811;BMP280;64449;50.016;19.954;2023-09-19T07:32:33;98110.44;;;20.19
75811;BMP280;64449;50.016;19.954;2023-09-19T07:35:00;98112.59;;;20.15
75811;BMP280;64449;50.016;19.954;2023-09-19T07:37:25;98113.96;;;20.12
75811;BMP280;64449;50.016;19.954;2023-09-19T07:39:51;98116.17;;;20.09
75811;BMP280;64449;50.016;19.954;2023-09-19T07:42:16;98116.21;;;20.10
75811;BMP280;64449;50.016;19.954;2023-09-19T07:44:43;98121.21;;;20.07
75811;BMP280;64449;50.016;19.954;2023-09-19T07:47:13;98124.58;;;20.07
75811;BMP280;64449;50.016;19.954;2023-09-19T07:49:39;98126.89;;;20.08
75811;BMP280;64449;50.016;19.954;2023-09-19T07:52:04;98127.45;;;20.08
75811;BMP280;64449;50.016;19.954;2023-09-19T07:54:29;98129.96;;;20.08
75811;BMP280;64449;50.016;19.954;2023-09-19T07:57:00;98131.90;;;20.10
75811;BMP280;64449;50.016;19.954;2023-09-19T07:59:25;98129.56;;;20.06
75811;BMP280;64449;50.016;19.954;2023-09-19T08:01:51;98132.93;;;20.03
75811;BMP280;64449;50.016;19.954;2023-09-19T08:04:17;98132.95;;;20.00
75811;BMP280;64449;50.016;19.954;2023-09-19T08:06:44;98133.73;;;19.96
75811;BMP280;64449;50.016;19.954;2023-09-19T08:09:10;98137.33;;;19.93
75811;BMP280;64449;50.016;19.954;2023-09-19T08:11:36;98138.37;;;19.92
75811;BMP280;64449;50.016;19.954;2023-09-19T08:14:02;98136.55;;;19.91
75811;BMP280;64449;50.016;19.954;2023-09-19T08:16:28;98138.23;;;19.86
75811;BMP280;64449;50.016;19.954;2023-09-19T08:18:53;98142.06;;;19.83
75811;BMP280;64449;50.016;19.954;2023-09-19T08:21:21;98147.52;;;19.81
75811;BMP280;64449;50.016;19.954;2023-09-19T08:23:46;98151.61;;;19.76
75811;BMP280;64449;50.016;19.954;2023-09-19T08:26:12;98147.70;;;19.72
75811;BMP280;64449;50.016;19.954;2023-09-19T08:28:37;98157.13;;;19.69
75811;BMP280;64449;50.016;19.954;2023-09-19T08:31:06;98167.14;;;19.67
75811;BMP280;64449;50.016;19.954;2023-09-19T08:33:33;98176.87;;;19.65
75811;BMP280;64449;50.016;19.954;2023-09-19T08:35:59;98178.26;;;19.64
75811;BMP280;64449;50.016;19.954;2023-09-19T08:38:24;98184.36;;;19.64
75811;BMP280;64449;50.016;19.954;2023-09-19T08:40:57;98190.65;;;19.62
75811;BMP280;64449;50.016;19.954;2023-09-19T08:43:22;98193.13;;;19.60
75811;BMP280;64449;50.016;19.954;2023-09-19T08:45:49;98197.30;;;19.60
75811;BMP280;64449;50.016;19.954;2023-09-19T08:48:20;98202.05;;;19.58
75811;BMP280;64449;50.016;19.954;2023-09-19T08:51:05;98213.20;;;19.58
75811;BMP280;64449;50.016;19.954;2023-09-19T08:56:26;98221.09;;;19.62
75811;BMP280;64449;50.016;19.954;2023-09-19T08:59:00;98225.73;;;19.58
75811;BMP280;64449;50.016;19.954;2023-09-19T09:01:28;98229.08;;;19.56
75811;BMP280;64449;50.016;19.954;2023-09-19T09:03:54;98231.95;;;19.54
75811;BMP280;64449;50.016;19.954;2023-09-19T09:06:21;98232.02;;;19.54
75811;BMP280;64449;50.016;19.954;2023-09-19T09:08:46;98233.86;;;19.54
75811;BMP280;64449;50.016;19.954;2023-09-19T09:11:14;98238.05;;;19.54
75811;BMP280;64449;50.016;19.954;2023-09-19T09:13:40;98241.67;;;19.52
75811;BMP280;64449;50.016;19.954;2023-09-19T09:16:07;98245.46;;;19.50
75811;BMP280;64449;50.016;19.954;2023-09-19T09:18:33;98248.66;;;19.48
75811;BMP280;64449;50.016;19.954;2023-09-19T09:20:58;98256.52;;;19.45
75811;BMP280;64449;50.016;19.954;2023-09-19T09:23:24;98256.67;;;19.44
75811;BMP280;64449;50.016;19.954;2023-09-19T09:25:55;98264.37;;;19.43
75811;BMP280;64449;50.016;19.954;2023-09-19T09:28:23;98262.69;;;19.41
75811;BMP280;64449;50.016;19.954;2023-09-19T09:30:49;98269.80;;;19.41
75811;BMP280;64449;50.016;19.954;2023-09-19T09:33:15;98276.41;;;19.39
75811;BMP280;64449;50.016;19.954;2023-09-19T09:36:00;98278.21;;;19.38
75811;BMP280;64449;50.016;19.954;2023-09-19T09:38:29;98283.84;;;19.36
75811;BMP280;64449;50.016;19.954;2023-09-19T09:40:57;98285.95;;;19.36
75811;BMP280;64449;50.016;19.954;2023-09-19T09:46:14;98286.20;;;19.36
75811;BMP280;64449;50.016;19.954;2023-09-19T09:48:45;98292.91;;;19.36
75811;BMP280;64449;50.016;19.954;2023-09-19T09:51:32;98297.73;;;19.36
75811;BMP280;64449;50.016;19.954;2023-09-19T09:54:18;98302.02;;;19.34
75811;BMP280;64449;50.016;19.954;2023-09-19T09:59:44;98308.16;;;19.34
75811;BMP280;64449;50.016;19.954;2023-09-19T10:02:12;98309.81;;;19.36
75811;BMP280;64449;50.016;19.954;2023-09-19T10:04:39;98314.02;;;19.37
75811;BMP280;64449;50.016;19.954;2023-09-19T10:07:43;98315.88;;;19.38
75811;BMP280;64449;50.016;19.954;2023-09-19T10:10:29;98320.43;;;19.40
75811;BMP280;64449;50.016;19.954;2023-09-19T10:13:02;98323.56;;;19.40
75811;BMP280;64449;50.016;19.954;2023-09-19T10:15:31;98322.90;;;19.40
75811;BMP280;64449;50.016;19.954;2023-09-19T10:18:00;98326.61;;;19.38
75811;BMP280;64449;50.016;19.954;2023-09-19T10:20:28;98328.30;;;19.38
75811;BMP280;64449;50.016;19.954;2023-09-19T10:23:06;98330.93;;;19.39
75811;BMP280;64449;50.016;19.954;2023-09-19T10:25:37;98335.42;;;19.40
75811;BMP280;64449;50.016;19.954;2023-09-19T10:28:05;98334.95;;;19.41
75811;BMP280;64449;50.016;19.954;2023-09-19T10:30:37;98334.84;;;19.41
75811;BMP280;64449;50.016;19.954;2023-09-19T10:33:05;98341.54;;;19.43
75811;BMP280;64449;50.016;19.954;2023-09-19T10:35:32;98341.36;;;19.43
75811;BMP280;64449;50.016;19.954;2023-09-19T10:38:00;98341.39;;;19.43
75811;BMP280;64449;50.016;19.954;2023-09-19T10:40:29;98337.97;;;19.44
75811;BMP280;64449;50.016;19.954;2023-09-19T10:43:05;98342.31;;;19.48
75811;BMP280;64449;50.016;19.954;2023-09-19T10:45:33;98343.23;;;19.49
75811;BMP280;64449;50.016;19.954;2023-09-19T10:47:59;98347.16;;;19.50
75811;BMP280;64449;50.016;19.954;2023-09-19T10:50:27;98349.99;;;19.52
75811;BMP280;64449;50.016;19.954;2023-09-19T10:52:59;98355.40;;;19.54
75811;BMP280;64449;50.016;19.954;2023-09-19T10:55:30;98359.79;;;19.56
75811;BMP280;64449;50.016;19.954;2023-09-19T10:57:56;98359.34;;;19.56
75811;BMP280;64449;50.016;19.954;2023-09-19T11:00:55;98361.75;;;19.58
75811;BMP280;64449;50.016;19.954;2023-09-19T11:03:21;98364.88;;;19.60
75811;BMP280;64449;50.016;19.954;2023-09-19T11:06:08;98367.62;;;19.60
75811;BMP280;64449;50.016;19.954;2023-09-19T11:09:04;98372.08;;;19.63
75811;BMP280;64449;50.016;19.954;2023-09-19T11:30:49;98384.59;;;19.72
75811;BMP280;64449;50.016;19.954;2023-09-19T11:33:21;98385.95;;;19.71
75811;BMP280;64449;50.016;19.954;2023-09-19T11:36:16;98389.34;;;19.72
75811;BMP280;64449;50.016;19.954;2023-09-19T11:43:53;98397.65;;;19.69
75811;BMP280;64449;50.016;19.954;2023-09-19T11:46:24;98397.95;;;19.66
75811;BMP280;64449;50.016;19.954;2023-09-19T11:48:53;98402.16;;;19.65
75811;BMP280;64449;50.016;19.954;2023-09-19T11:51:23;98402.27;;;19.65
75811;BMP280;64449;50.016;19.954;2023-09-19T11:53:58;98404.33;;;19.65
75811;BMP280;64449;50.016;19.954;2023-09-19T11:56:28;98404.19;;;19.64
75811;BMP280;64449;50.016;19.954;2023-09-19T11:58:55;98402.34;;;19.62
75811;BMP280;64449;50.016;19.954;2023-09-19T12:01:26;98399.20;;;19.59
75811;BMP280;64449;50.016;19.954;2023-09-19T12:03:58;98396.61;;;19.58
75811;BMP280;64449;50.016;19.954;2023-09-19T12:06:25;98399.77;;;19.54
75811;BMP280;64449;50.016;19.954;2023-09-19T12:08:51;98399.55;;;19.48
75811;BMP280;64449;50.016;19.954;2023-09-19T12:11:19;98400.21;;;19.44
75811;BMP280;64449;50.016;19.954;2023-09-19T12:13:47;98400.33;;;19.41
75811;BMP280;64449;50.016;19.954;2023-09-19T12:16:17;98401.90;;;19.40
75811;BMP280;64449;50.016;19.954;2023-09-19T12:18:48;98406.14;;;19.40
75811;BMP280;64449;50.016;19.954;2023-09-19T12:21:22;98408.19;;;19.39
75811;BMP280;64449;50.016;19.954;2023-09-19T12:24:04;98410.75;;;19.39
75811;BMP280;64449;50.016;19.954;2023-09-19T12:26:38;98407.71;;;19.39
75811;BMP280;64449;50.016;19.954;2023-09-19T12:29:03;98412.70;;;19.38
75811;BMP280;64449;50.016;19.954;2023-09-19T12:31:30;98412.94;;;19.37
75811;BMP280;64449;50.016;19.954;2023-09-19T12:34:01;98414.66;;;19.38
75811;BMP280;64449;50.016;19.954;2023-09-19T12:36:27;98412.71;;;19.37
75811;BMP280;64449;50.016;19.954;2023-09-19T12:38:58;98412.45;;;19.37
75811;BMP280;64449;50.016;19.954;2023-09-19T12:41:24;98415.51;;;19.37
75811;BMP280;64449;50.016;19.954;2023-09-19T12:43:52;98415.09;;;19.37
75811;BMP280;64449;50.016;19.954;2023-09-19T12:46:22;98412.66;;;19.37
75811;BMP280;64449;50.016;19.954;2023-09-19T12:49:18;98412.98;;;19.39
75811;BMP280;64449;50.016;19.954;2023-09-19T12:51:47;98411.77;;;19.41
75811;BMP280;64449;50.016;19.954;2023-09-19T12:54:13;98409.85;;;19.41
75811;BMP280;64449;50.016;19.954;2023-09-19T12:56:45;98413.52;;;19.40
75811;BMP280;64449;50.016;19.954;2023-09-19T12:59:14;98412.83;;;19.38
75811;BMP280;64449;50.016;19.954;2023-09-19T13:01:41;98411.89;;;19.39
75811;BMP280;64449;50.016;19.954;2023-09-19T13:04:19;98414.61;;;19.41
75811;BMP280;64449;50.016;19.954;2023-09-19T13:06:50;98414.46;;;19.44
75811;BMP280;64449;50.016;19.954;2023-09-19T13:09:20;98417.77;;;19.48
75811;BMP280;64449;50.016;19.954;2023-09-19T13:11:46;98421.43;;;19.52
75811;BMP280;64449;50.016;19.954;2023-09-19T13:14:26;98425.70;;;19.54
75811;BMP280;64449;50.016;19.954;2023-09-19T13:17:02;98428.55;;;19.56
75811;BMP280;64449;50.016;19.954;2023-09-19T13:19:50;98428.69;;;19.58
75811;BMP280;64449;50.016;19.954;2023-09-19T13:22:39;98431.16;;;19.59
75811;BMP280;64449;50.016;19.954;2023-09-19T13:25:07;98431.71;;;19.60
75811;BMP280;64449;50.016;19.954;2023-09-19T13:27:33;98436.02;;;19.61
75811;BMP280;64449;50.016;19.954;2023-09-19T13:29:59;98435.70;;;19.62
75811;BMP280;64449;50.016;19.954;2023-09-19T13:32:25;98438.17;;;19.65
75811;BMP280;64449;50.016;19.954;2023-09-19T13:34:50;98439.59;;;19.67
75811;BMP280;64449;50.016;19.954;2023-09-19T13:37:16;98439.50;;;19.69
75811;BMP280;64449;50.016;19.954;2023-09-19T13:39:43;98439.38;;;19.72
75811;BMP280;64449;50.016;19.954;2023-09-19T13:42:13;98444.42;;;19.74
75811;BMP280;64449;50.016;19.954;2023-09-19T13:44:39;98442.85;;;19.75
75811;BMP280;64449;50.016;19.954;2023-09-19T13:47:06;98449.15;;;19.77
75811;BMP280;64449;50.016;19.954;2023-09-19T13:49:35;98449.36;;;19.78
75811;BMP280;64449;50.016;19.954;2023-09-19T13:52:01;98443.09;;;19.79
75811;BMP280;64449;50.016;19.954;2023-09-19T13:54:29;98445.13;;;19.81
75811;BMP280;64449;50.016;19.954;2023-09-19T13:56:55;98440.98;;;19.84
75811;BMP280;64449;50.016;19.954;2023-09-19T13:59:20;98443.59;;;19.90
75811;BMP280;64449;50.016;19.954;2023-09-19T14:01:46;98444.15;;;19.96
75811;BMP280;64449;50.016;19.954;2023-09-19T14:04:11;98444.80;;;20.02
75811;BMP280;64449;50.016;19.954;2023-09-19T14:06:37;98445.78;;;20.08
75811;BMP280;64449;50.016;19.954;2023-09-19T14:09:03;98443.03;;;20.13
75811;BMP280;64449;50.016;19.954;2023-09-19T14:11:29;98444.27;;;20.19
75811;BMP280;64449;50.016;19.954;2023-09-19T14:13:54;98445.63;;;20.24
75811;BMP280;64449;50.016;19.954;2023-09-19T14:16:20;98444.54;;;20.30
75811;BMP280;64449;50.016;19.954;2023-09-19T14:18:47;98440.91;;;20.38
75811;BMP280;64449;50.016;19.954;2023-09-19T14:21:13;98441.37;;;20.44
75811;BMP280;64449;50.016;19.954;2023-09-19T14:23:40;98437.87;;;20.48
75811;BMP280;64449;50.016;19.954;2023-09-19T14:26:07;98438.77;;;20.51
75811;BMP280;64449;50.016;19.954;2023-09-19T14:28:34;98442.05;;;20.56
75811;BMP280;64449;50.016;19.954;2023-09-19T14:31:07;98448.27;;;20.62
75811;BMP280;64449;50.016;19.954;2023-09-19T14:33:33;98449.89;;;20.68
75811;BMP280;64449;50.016;19.954;2023-09-19T14:35:58;98451.33;;;20.72
75811;BMP280;64449;50.016;19.954;2023-09-19T14:38:23;98451.64;;;20.75
75811;BMP280;64449;50.016;19.954;2023-09-19T14:40:49;98452.21;;;20.76
75811;BMP280;64449;50.016;19.954;2023-09-19T14:43:23;98458.63;;;20.77
75811;BMP280;64449;50.016;19.954;2023-09-19T14:45:49;98459.48;;;20.76
75811;BMP280;64449;50.016;19.954;2023-09-19T14:48:14;98455.83;;;20.77
75811;BMP280;64449;50.016;19.954;2023-09-19T14:50:39;98460.77;;;20.81